sensor_id;sensor_type;location;lat;lon;timestamp;P1;durP1;ratioP1;P2;durP2;ratioP2
16254;SDS011;8235;52.198;9.904;2023-03-23T00:00:35;2.33;;;1.30;;
16254;SDS011;8235;52.198;9.904;2023-03-23T00:03:03;2.70;;;1.20;;
16254;SDS011;8235;52.198;9.904;2023-03-23T00:05:29;2.70;;;1.20;;
16254;SDS011;8235;52.198;9.904;2023-03-23T00:07:56;3.27;;;1.37;;
16254;SDS011;8235;52.198;9.904;2023-03-23T00:10:27;3.10;;;1.10;;
16254;SDS011;8235;52.198;9.904;2023-03-23T00:12:57;1.77;;;1.10;;
16254;SDS011;8235;52.198;9.904;2023-03-23T00:15:27;3.23;;;1.40;;
16254;SDS011;8235;52.198;9.904;2023-03-23T00:17:55;2.30;;;1.10;;
16254;SDS011;8235;52.198;9.904;2023-03-23T00:20:29;1.87;;;1.10;;
16254;SDS011;8235;52.198;9.904;2023-03-23T00:22:55;1.87;;;1.10;;
16254;SDS011;8235;52.198;9.904;2023-03-23T00:25:24;2.43;;;1.30;;
16254;SDS011;8235;52.198;9.904;2023-03-23T00:27:51;1.93;;;1.30;;
16254;SDS011;8235;52.198;9.904;2023-03-23T00:30:18;2.10;;;1.80;;
16254;SDS011;8235;52.198;9.904;2023-03-23T00:32:44;3.03;;;1.23;;
16254;SDS011;8235;52.198;9.904;2023-03-23T00:35:10;2.20;;;1.10;;
16254;SDS011;8235;52.198;9.904;2023-03-23T00:37:38;2.97;;;1.50;;
16254;SDS011;8235;52.198;9.904;2023-03-23T00:40:05;2.40;;;1.03;;
16254;SDS011;8235;52.198;9.904;2023-03-23T00:42:35;3.63;;;1.30;;
16254;SDS011;8235;52.198;9.904;2023-03-23T00:45:03;1.93;;;1.20;;
16254;SDS011;8235;52.198;9.904;2023-03-23T00:47:35;3.20;;;1.30;;
16254;SDS011;8235;52.198;9.904;2023-03-23T00:50:02;3.57;;;1.40;;
16254;SDS011;8235;52.198;9.904;2023-03-23T00:52:30;1.70;;;1.10;;
16254;SDS011;8235;52.198;9.904;2023-03-23T00:54:58;3.13;;;1.20;;
16254;SDS011;8235;52.198;9.904;2023-03-23T00:57:24;3.10;;;1.17;;
16254;SDS011;8235;52.198;9.904;2023-03-23T00:59:51;2.17;;;1.40;;
16254;SDS011;8235;52.198;9.904;2023-03-23T01:02:17;2.70;;;1.43;;
16254;SDS011;8235;52.198;9.904;2023-03-23T01:04:44;2.20;;;1.33;;
16254;SDS011;8235;52.198;9.904;2023-03-23T01:07:11;1.50;;;1.30;;
16254;SDS011;8235;52.198;9.904;2023-03-23T01:09:38;2.93;;;1.13;;
16254;SDS011;8235;52.198;9.904;2023-03-23T01:12:11;4.20;;;1.53;;
16254;SDS011;8235;52.198;9.904;2023-03-23T01:14:37;2.07;;;1.20;;
16254;SDS011;8235;52.198;9.904;2023-03-23T01:17:04;5.53;;;1.47;;
16254;SDS011;8235;52.198;9.904;2023-03-23T01:19:31;3.50;;;1.90;;
16254;SDS011;8235;52.198;9.904;2023-03-23T01:21:57;3.57;;;1.50;;
16254;SDS011;8235;52.198;9.904;2023-03-23T01:24:24;2.20;;;1.33;;
16254;SDS011;8235;52.198;9.904;2023-03-23T01:26:50;2.73;;;1.20;;
16254;SDS011;8235;52.198;9.904;2023-03-23T01:29:18;2.77;;;1.50;;
16254;SDS011;8235;52.198;9.904;2023-03-23T01:31:45;2.73;;;1.40;;
16254;SDS011;8235;52.198;9.904;2023-03-23T01:34:11;1.90;;;1.30;;
16254;SDS011;8235;52.198;9.904;2023-03-23T01:36:38;2.67;;;1.43;;
16254;SDS011;8235;52.198;9.904;2023-03-23T01:39:04;2.50;;;1.50;;
16254;SDS011;8235;52.198;9.904;2023-03-23T01:41:31;2.10;;;1.40;;
16254;SDS011;8235;52.198;9.904;2023-03-23T01:44:00;2.37;;;1.20;;
16254;SDS011;8235;52.198;9.904;2023-03-23T01:46:30;4.00;;;1.20;;
16254;SDS011;8235;52.198;9.904;2023-03-23T01:48:58;2.07;;;1.10;;
16254;SDS011;8235;52.198;9.904;2023-03-23T01:51:31;2.77;;;1.30;;
16254;SDS011;8235;52.198;9.904;2023-03-23T01:54:02;2.17;;;1.30;;
16254;SDS011;8235;52.198;9.904;2023-03-23T01:56:33;2.10;;;1.00;;
16254;SDS011;8235;52.198;9.904;2023-03-23T01:59:06;2.17;;;1.30;;
16254;SDS011;8235;52.198;9.904;2023-03-23T02:01:35;3.40;;;1.43;;
16254;SDS011;8235;52.198;9.904;2023-03-23T02:04:04;2.03;;;1.47;;
16254;SDS011;8235;52.198;9.904;2023-03-23T02:06:32;1.67;;;0.90;;
16254;SDS011;8235;52.198;9.904;2023-03-23T02:08:58;2.10;;;1.10;;
16254;SDS011;8235;52.198;9.904;2023-03-23T02:11:25;1.87;;;1.20;;
16254;SDS011;8235;52.198;9.904;2023-03-23T02:13:52;2.07;;;1.17;;
16254;SDS011;8235;52.198;9.904;2023-03-23T02:16:21;2.17;;;1.20;;
16254;SDS011;8235;52.198;9.904;2023-03-23T02:19:01;1.83;;;1.30;;
16254;SDS011;8235;52.198;9.904;2023-03-23T02:21:47;3.87;;;1.30;;
16254;SDS011;8235;52.198;9.904;2023-03-23T02:24:43;2.93;;;1.27;;
16254;SDS011;8235;52.198;9.904;2023-03-23T02:27:27;1.97;;;1.00;;
16254;SDS011;8235;52.198;9.904;2023-03-23T02:30:20;3.87;;;1.60;;
16254;SDS011;8235;52.198;9.904;2023-03-23T02:33:18;1.40;;;1.00;;
16254;SDS011;8235;52.198;9.904;2023-03-23T02:35:56;2.67;;;1.47;;
16254;SDS011;8235;52.198;9.904;2023-03-23T02:38:28;3.47;;;1.53;;
16254;SDS011;8235;52.198;9.904;2023-03-23T02:40:59;2.17;;;1.20;;
16254;SDS011;8235;52.198;9.904;2023-03-23T02:43:29;2.67;;;1.47;;
16254;SDS011;8235;52.198;9.904;2023-03-23T02:46:00;2.00;;;1.40;;
16254;SDS011;8235;52.198;9.904;2023-03-23T02:48:32;2.77;;;1.60;;
16254;SDS011;8235;52.198;9.904;2023-03-23T02:51:00;2.87;;;1.70;;
16254;SDS011;8235;52.198;9.904;2023-03-23T02:53:29;3.93;;;1.80;;
16254;SDS011;8235;52.198;9.904;2023-03-23T02:55:59;1.77;;;1.40;;
16254;SDS011;8235;52.198;9.904;2023-03-23T02:58:27;3.47;;;1.60;;
16254;SDS011;8235;52.198;9.904;2023-03-23T03:00:54;2.53;;;1.70;;
16254;SDS011;8235;52.198;9.904;2023-03-23T03:03:22;3.70;;;1.53;;
16254;SDS011;8235;52.198;9.904;2023-03-23T03:05:53;3.17;;;1.60;;
16254;SDS011;8235;52.198;9.904;2023-03-23T03:08:33;2.40;;;1.10;;
16254;SDS011;8235;52.198;9.904;2023-03-23T03:11:10;2.93;;;1.30;;
16254;SDS011;8235;52.198;9.904;2023-03-23T03:13:40;2.93;;;1.47;;
16254;SDS011;8235;52.198;9.904;2023-03-23T03:16:16;3.07;;;1.60;;
16254;SDS011;8235;52.198;9.904;2023-03-23T03:18:51;3.20;;;1.30;;
16254;SDS011;8235;52.198;9.904;2023-03-23T03:21:25;1.80;;;1.60;;
16254;SDS011;8235;52.198;9.904;2023-03-23T03:23:54;1.77;;;1.63;;
16254;SDS011;8235;52.198;9.904;2023-03-23T03:26:24;1.67;;;1.57;;
16254;SDS011;8235;52.198;9.904;2023-03-23T03:28:52;2.30;;;1.37;;
16254;SDS011;8235;52.198;9.904;2023-03-23T03:31:20;2.83;;;1.43;;
16254;SDS011;8235;52.198;9.904;2023-03-23T03:33:49;5.13;;;2.17;;
16254;SDS011;8235;52.198;9.904;2023-03-23T03:36:17;2.00;;;1.60;;
16254;SDS011;8235;52.198;9.904;2023-03-23T03:38:48;2.57;;;1.47;;
16254;SDS011;8235;52.198;9.904;2023-03-23T03:41:17;3.87;;;1.73;;
16254;SDS011;8235;52.198;9.904;2023-03-23T03:43:44;1.90;;;1.50;;
16254;SDS011;8235;52.198;9.904;2023-03-23T03:46:11;3.83;;;1.50;;
16254;SDS011;8235;52.198;9.904;2023-03-23T03:48:37;3.13;;;1.60;;
16254;SDS011;8235;52.198;9.904;2023-03-23T03:51:04;3.77;;;1.90;;
16254;SDS011;8235;52.198;9.904;2023-03-23T03:53:30;3.97;;;2.00;;
16254;SDS011;8235;52.198;9.904;2023-03-23T03:55:58;2.50;;;1.73;;
16254;SDS011;8235;52.198;9.904;2023-03-23T03:58:26;3.13;;;1.83;;
16254;SDS011;8235;52.198;9.904;2023-03-23T04:00:56;2.73;;;1.70;;
16254;SDS011;8235;52.198;9.904;2023-03-23T04:03:23;2.27;;;1.60;;
16254;SDS011;8235;52.198;9.904;2023-03-23T04:05:50;2.13;;;1.53;;
16254;SDS011;8235;52.198;9.904;2023-03-23T04:08:17;2.67;;;1.43;;
16254;SDS011;8235;52.198;9.904;2023-03-23T04:10:44;2.87;;;1.20;;
16254;SDS011;8235;52.198;9.904;2023-03-23T04:13:11;2.03;;;1.50;;
16254;SDS011;8235;52.198;9.904;2023-03-23T04:15:38;2.90;;;1.73;;
16254;SDS011;8235;52.198;9.904;2023-03-23T04:18:04;4.47;;;1.63;;
16254;SDS011;8235;52.198;9.904;2023-03-23T04:20:31;2.37;;;2.13;;
16254;SDS011;8235;52.198;9.904;2023-03-23T04:22:59;3.00;;;1.70;;
16254;SDS011;8235;52.198;9.904;2023-03-23T04:25:27;2.03;;;1.40;;
16254;SDS011;8235;52.198;9.904;2023-03-23T04:27:53;2.03;;;1.43;;
16254;SDS011;8235;52.198;9.904;2023-03-23T04:30:24;2.93;;;1.60;;
16254;SDS011;8235;52.198;9.904;2023-03-23T04:32:52;2.23;;;1.40;;
16254;SDS011;8235;52.198;9.904;2023-03-23T04:35:20;1.57;;;1.40;;
16254;SDS011;8235;52.198;9.904;2023-03-23T04:37:48;1.73;;;1.30;;
16254;SDS011;8235;52.198;9.904;2023-03-23T04:40:15;2.07;;;1.30;;
16254;SDS011;8235;52.198;9.904;2023-03-23T04:42:43;1.77;;;1.50;;
16254;SDS011;8235;52.198;9.904;2023-03-23T04:45:12;3.20;;;1.50;;
16254;SDS011;8235;52.198;9.904;2023-03-23T04:47:41;1.60;;;1.20;;
16254;SDS011;8235;52.198;9.904;2023-03-23T04:50:18;2.47;;;1.23;;
16254;SDS011;8235;52.198;9.904;2023-03-23T04:52:45;2.27;;;1.30;;
16254;SDS011;8235;52.198;9.904;2023-03-23T04:55:12;2.30;;;1.30;;
16254;SDS011;8235;52.198;9.904;2023-03-23T04:57:39;1.33;;;1.20;;
16254;SDS011;8235;52.198;9.904;2023-03-23T05:00:06;1.47;;;1.37;;
16254;SDS011;8235;52.198;9.904;2023-03-23T05:02:34;2.07;;;1.23;;
16254;SDS011;8235;52.198;9.904;2023-03-23T05:05:03;2.37;;;1.50;;
16254;SDS011;8235;52.198;9.904;2023-03-23T05:07:29;1.83;;;1.10;;
16254;SDS011;8235;52.198;9.904;2023-03-23T05:09:56;2.47;;;1.13;;
16254;SDS011;8235;52.198;9.904;2023-03-23T05:12:23;2.23;;;1.27;;
16254;SDS011;8235;52.198;9.904;2023-03-23T05:14:49;2.27;;;1.10;;
16254;SDS011;8235;52.198;9.904;2023-03-23T05:17:16;2.27;;;1.10;;
16254;SDS011;8235;52.198;9.904;2023-03-23T05:19:43;3.77;;;1.10;;
16254;SDS011;8235;52.198;9.904;2023-03-23T05:22:13;0.97;;;0.83;;
16254;SDS011;8235;52.198;9.904;2023-03-23T05:24:40;1.50;;;0.90;;
16254;SDS011;8235;52.198;9.904;2023-03-23T05:27:07;1.97;;;1.07;;
16254;SDS011;8235;52.198;9.904;2023-03-23T05:29:34;2.23;;;1.00;;
16254;SDS011;8235;52.198;9.904;2023-03-23T05:32:01;1.60;;;0.90;;
16254;SDS011;8235;52.198;9.904;2023-03-23T05:34:29;1.20;;;0.90;;
16254;SDS011;8235;52.198;9.904;2023-03-23T05:36:57;2.13;;;0.70;;
16254;SDS011;8235;52.198;9.904;2023-03-23T05:39:25;1.03;;;0.43;;
16254;SDS011;8235;52.198;9.904;2023-03-23T05:41:51;2.53;;;0.80;;
16254;SDS011;8235;52.198;9.904;2023-03-23T05:44:18;2.00;;;0.70;;
16254;SDS011;8235;52.198;9.904;2023-03-23T05:46:44;1.67;;;0.80;;
16254;SDS011;8235;52.198;9.904;2023-03-23T05:49:11;1.03;;;0.77;;
16254;SDS011;8235;52.198;9.904;2023-03-23T05:51:38;1.63;;;0.60;;
16254;SDS011;8235;52.198;9.904;2023-03-23T05:54:05;0.60;;;0.60;;
16254;SDS011;8235;52.198;9.904;2023-03-23T05:56:33;0.60;;;0.60;;
16254;SDS011;8235;52.198;9.904;2023-03-23T05:59:00;1.30;;;0.70;;
16254;SDS011;8235;52.198;9.904;2023-03-23T06:01:27;1.53;;;0.97;;
16254;SDS011;8235;52.198;9.904;2023-03-23T06:03:54;1.03;;;0.63;;
16254;SDS011;8235;52.198;9.904;2023-03-23T06:06:23;1.20;;;0.60;;
16254;SDS011;8235;52.198;9.904;2023-03-23T06:08:50;1.03;;;0.70;;
16254;SDS011;8235;52.198;9.904;2023-03-23T06:11:17;1.23;;;0.63;;
16254;SDS011;8235;52.198;9.904;2023-03-23T06:13:47;0.93;;;0.80;;
16254;SDS011;8235;52.198;9.904;2023-03-23T06:16:14;3.10;;;1.70;;
16254;SDS011;8235;52.198;9.904;2023-03-23T06:18:41;1.53;;;0.77;;
16254;SDS011;8235;52.198;9.904;2023-03-23T06:21:07;1.70;;;0.70;;
16254;SDS011;8235;52.198;9.904;2023-03-23T06:23:34;0.97;;;0.77;;
16254;SDS011;8235;52.198;9.904;2023-03-23T06:26:03;1.13;;;0.60;;
16254;SDS011;8235;52.198;9.904;2023-03-23T06:28:33;0.80;;;0.60;;
16254;SDS011;8235;52.198;9.904;2023-03-23T06:31:02;1.20;;;1.10;;
16254;SDS011;8235;52.198;9.904;2023-03-23T06:33:31;0.93;;;0.60;;
16254;SDS011;8235;52.198;9.904;2023-03-23T06:35:59;1.00;;;0.80;;
16254;SDS011;8235;52.198;9.904;2023-03-23T06:38:25;1.20;;;0.70;;
16254;SDS011;8235;52.198;9.904;2023-03-23T06:40:52;1.13;;;0.70;;
16254;SDS011;8235;52.198;9.904;2023-03-23T06:43:19;0.80;;;0.60;;
16254;SDS011;8235;52.198;9.904;2023-03-23T06:45:45;1.50;;;0.90;;
16254;SDS011;8235;52.198;9.904;2023-03-23T06:48:13;1.67;;;0.80;;
16254;SDS011;8235;52.198;9.904;2023-03-23T06:50:42;1.33;;;0.67;;
16254;SDS011;8235;52.198;9.904;2023-03-23T06:53:08;1.40;;;0.73;;
16254;SDS011;8235;52.198;9.904;2023-03-23T06:55:35;1.47;;;0.90;;
16254;SDS011;8235;52.198;9.904;2023-03-23T06:58:03;2.40;;;1.00;;
16254;SDS011;8235;52.198;9.904;2023-03-23T07:00:30;1.40;;;0.90;;
16254;SDS011;8235;52.198;9.904;2023-03-23T07:02:57;1.50;;;0.90;;
16254;SDS011;8235;52.198;9.904;2023-03-23T07:05:25;0.97;;;0.70;;
16254;SDS011;8235;52.198;9.904;2023-03-23T07:07:52;1.53;;;0.70;;
16254;SDS011;8235;52.198;9.904;2023-03-23T07:10:18;0.93;;;0.73;;
16254;SDS011;8235;52.198;9.904;2023-03-23T07:12:45;1.27;;;0.80;;
16254;SDS011;8235;52.198;9.904;2023-03-23T07:15:12;0.70;;;0.70;;
16254;SDS011;8235;52.198;9.904;2023-03-23T07:17:39;1.00;;;0.70;;
16254;SDS011;8235;52.198;9.904;2023-03-23T07:20:06;1.57;;;0.90;;
16254;SDS011;8235;52.198;9.904;2023-03-23T07:22:35;1.87;;;0.80;;
16254;SDS011;8235;52.198;9.904;2023-03-23T07:25:01;1.37;;;0.80;;
16254;SDS011;8235;52.198;9.904;2023-03-23T07:27:28;1.00;;;0.60;;
16254;SDS011;8235;52.198;9.904;2023-03-23T07:29:54;2.30;;;0.80;;
16254;SDS011;8235;52.198;9.904;2023-03-23T07:32:22;1.40;;;0.70;;
16254;SDS011;8235;52.198;9.904;2023-03-23T07:34:49;0.77;;;0.70;;
16254;SDS011;8235;52.198;9.904;2023-03-23T07:37:15;2.33;;;0.80;;
16254;SDS011;8235;52.198;9.904;2023-03-23T07:39:44;1.93;;;1.07;;
16254;SDS011;8235;52.198;9.904;2023-03-23T07:42:10;0.77;;;0.70;;
16254;SDS011;8235;52.198;9.904;2023-03-23T07:44:37;3.10;;;0.80;;
16254;SDS011;8235;52.198;9.904;2023-03-23T07:47:03;1.70;;;0.87;;
16254;SDS011;8235;52.198;9.904;2023-03-23T07:49:29;1.87;;;1.03;;
16254;SDS011;8235;52.198;9.904;2023-03-23T07:51:57;2.67;;;1.07;;
16254;SDS011;8235;52.198;9.904;2023-03-23T07:54:23;1.67;;;1.00;;
16254;SDS011;8235;52.198;9.904;2023-03-23T07:56:51;1.40;;;0.90;;
16254;SDS011;8235;52.198;9.904;2023-03-23T07:59:18;1.73;;;0.90;;
16254;SDS011;8235;52.198;9.904;2023-03-23T08:01:45;1.60;;;0.97;;
16254;SDS011;8235;52.198;9.904;2023-03-23T08:04:12;1.50;;;1.00;;
16254;SDS011;8235;52.198;9.904;2023-03-23T08:06:40;1.03;;;0.73;;
16254;SDS011;8235;52.198;9.904;2023-03-23T08:09:07;1.90;;;0.87;;
16254;SDS011;8235;52.198;9.904;2023-03-23T08:11:35;2.07;;;1.03;;
16254;SDS011;8235;52.198;9.904;2023-03-23T08:14:03;2.17;;;0.87;;
16254;SDS011;8235;52.198;9.904;2023-03-23T08:16:30;3.67;;;1.13;;
16254;SDS011;8235;52.198;9.904;2023-03-23T08:18:57;2.70;;;0.90;;
16254;SDS011;8235;52.198;9.904;2023-03-23T08:21:24;2.93;;;1.00;;
16254;SDS011;8235;52.198;9.904;2023-03-23T08:23:51;1.17;;;1.00;;
16254;SDS011;8235;52.198;9.904;2023-03-23T08:26:18;1.17;;;1.00;;
16254;SDS011;8235;52.198;9.904;2023-03-23T08:28:45;1.20;;;0.80;;
16254;SDS011;8235;52.198;9.904;2023-03-23T08:31:14;2.70;;;1.67;;
16254;SDS011;8235;52.198;9.904;2023-03-23T08:33:42;2.17;;;1.30;;
16254;SDS011;8235;52.198;9.904;2023-03-23T08:36:08;3.47;;;1.10;;
16254;SDS011;8235;52.198;9.904;2023-03-23T08:38:35;2.90;;;1.30;;
16254;SDS011;8235;52.198;9.904;2023-03-23T08:41:03;1.60;;;0.80;;
16254;SDS011;8235;52.198;9.904;2023-03-23T08:43:32;2.27;;;1.30;;
16254;SDS011;8235;52.198;9.904;2023-03-23T08:45:59;1.90;;;1.00;;
16254;SDS011;8235;52.198;9.904;2023-03-23T08:48:27;2.20;;;1.27;;
16254;SDS011;8235;52.198;9.904;2023-03-23T08:50:54;3.13;;;1.30;;
16254;SDS011;8235;52.198;9.904;2023-03-23T08:53:20;2.40;;;1.40;;
16254;SDS011;8235;52.198;9.904;2023-03-23T08:55:47;2.80;;;1.00;;
16254;SDS011;8235;52.198;9.904;2023-03-23T08:58:14;3.83;;;1.50;;
16254;SDS011;8235;52.198;9.904;2023-03-23T09:00:42;2.13;;;1.70;;
16254;SDS011;8235;52.198;9.904;2023-03-23T09:03:09;2.67;;;1.33;;
16254;SDS011;8235;52.198;9.904;2023-03-23T09:05:37;1.77;;;1.17;;
16254;SDS011;8235;52.198;9.904;2023-03-23T09:08:08;3.10;;;1.30;;
16254;SDS011;8235;52.198;9.904;2023-03-23T09:10:34;3.10;;;1.60;;
16254;SDS011;8235;52.198;9.904;2023-03-23T09:13:01;4.63;;;1.87;;
16254;SDS011;8235;52.198;9.904;2023-03-23T09:15:27;1.70;;;1.10;;
16254;SDS011;8235;52.198;9.904;2023-03-23T09:17:54;3.63;;;1.13;;
16254;SDS011;8235;52.198;9.904;2023-03-23T09:20:22;2.40;;;1.30;;
16254;SDS011;8235;52.198;9.904;2023-03-23T09:22:52;3.03;;;1.40;;
16254;SDS011;8235;52.198;9.904;2023-03-23T09:25:21;2.87;;;1.30;;
16254;SDS011;8235;52.198;9.904;2023-03-23T09:27:50;4.37;;;1.70;;
16254;SDS011;8235;52.198;9.904;2023-03-23T09:30:21;3.30;;;1.30;;
16254;SDS011;8235;52.198;9.904;2023-03-23T09:32:48;3.57;;;1.10;;
16254;SDS011;8235;52.198;9.904;2023-03-23T09:35:15;4.10;;;1.43;;
16254;SDS011;8235;52.198;9.904;2023-03-23T09:37:42;3.20;;;1.50;;
16254;SDS011;8235;52.198;9.904;2023-03-23T09:40:13;3.10;;;1.40;;
16254;SDS011;8235;52.198;9.904;2023-03-23T09:42:51;4.57;;;1.40;;
16254;SDS011;8235;52.198;9.904;2023-03-23T09:45:25;2.23;;;1.10;;
16254;SDS011;8235;52.198;9.904;2023-03-23T09:48:02;4.50;;;1.60;;
16254;SDS011;8235;52.198;9.904;2023-03-23T09:50:38;4.87;;;1.77;;
16254;SDS011;8235;52.198;9.904;2023-03-23T09:53:10;5.73;;;1.90;;
16254;SDS011;8235;52.198;9.904;2023-03-23T09:55:42;5.23;;;2.20;;
16254;SDS011;8235;52.198;9.904;2023-03-23T09:58:11;2.70;;;1.37;;
16254;SDS011;8235;52.198;9.904;2023-03-23T10:00:45;3.40;;;1.20;;
16254;SDS011;8235;52.198;9.904;2023-03-23T10:03:25;4.87;;;1.40;;
16254;SDS011;8235;52.198;9.904;2023-03-23T10:05:54;5.33;;;1.53;;
16254;SDS011;8235;52.198;9.904;2023-03-23T10:08:21;3.00;;;1.23;;
16254;SDS011;8235;52.198;9.904;2023-03-23T10:10:53;2.60;;;1.40;;
16254;SDS011;8235;52.198;9.904;2023-03-23T10:13:30;2.63;;;1.53;;
16254;SDS011;8235;52.198;9.904;2023-03-23T10:16:09;4.03;;;1.43;;
16254;SDS011;8235;52.198;9.904;2023-03-23T10:18:40;2.37;;;1.23;;
16254;SDS011;8235;52.198;9.904;2023-03-23T10:21:11;1.97;;;1.23;;
16254;SDS011;8235;52.198;9.904;2023-03-23T10:23:43;4.23;;;1.50;;
16254;SDS011;8235;52.198;9.904;2023-03-23T10:29:08;3.63;;;1.37;;
16254;SDS011;8235;52.198;9.904;2023-03-23T10:31:40;3.57;;;1.47;;
16254;SDS011;8235;52.198;9.904;2023-03-23T10:34:11;3.13;;;1.30;;
16254;SDS011;8235;52.198;9.904;2023-03-23T10:36:49;3.70;;;1.13;;
16254;SDS011;8235;52.198;9.904;2023-03-23T10:39:21;5.47;;;1.50;;
16254;SDS011;8235;52.198;9.904;2023-03-23T10:41:51;3.27;;;1.30;;
16254;SDS011;8235;52.198;9.904;2023-03-23T10:44:18;3.30;;;1.43;;
16254;SDS011;8235;52.198;9.904;2023-03-23T10:46:48;4.47;;;1.50;;
16254;SDS011;8235;52.198;9.904;2023-03-23T10:49:23;4.03;;;1.40;;
16254;SDS011;8235;52.198;9.904;2023-03-23T10:51:53;4.40;;;1.67;;
16254;SDS011;8235;52.198;9.904;2023-03-23T10:54:26;5.83;;;2.13;;
16254;SDS011;8235;52.198;9.904;2023-03-23T10:56:59;3.50;;;1.00;;
16254;SDS011;8235;52.198;9.904;2023-03-23T10:59:27;4.93;;;1.70;;
16254;SDS011;8235;52.198;9.904;2023-03-23T11:01:57;4.37;;;1.50;;
16254;SDS011;8235;52.198;9.904;2023-03-23T11:04:27;5.00;;;1.50;;
16254;SDS011;8235;52.198;9.904;2023-03-23T11:06:58;4.47;;;1.17;;
16254;SDS011;8235;52.198;9.904;2023-03-23T11:09:33;3.60;;;1.13;;
16254;SDS011;8235;52.198;9.904;2023-03-23T11:12:03;4.70;;;1.50;;
16254;SDS011;8235;52.198;9.904;2023-03-23T11:14:31;3.60;;;1.47;;
16254;SDS011;8235;52.198;9.904;2023-03-23T11:16:59;2.57;;;1.27;;
16254;SDS011;8235;52.198;9.904;2023-03-23T11:19:27;4.63;;;1.30;;
16254;SDS011;8235;52.198;9.904;2023-03-23T11:21:58;1.77;;;1.30;;
16254;SDS011;8235;52.198;9.904;2023-03-23T11:24:31;3.57;;;1.17;;
16254;SDS011;8235;52.198;9.904;2023-03-23T11:26:59;2.73;;;1.30;;
16254;SDS011;8235;52.198;9.904;2023-03-23T11:29:29;3.33;;;1.80;;
16254;SDS011;8235;52.198;9.904;2023-03-23T11:32:02;5.93;;;1.40;;
16254;SDS011;8235;52.198;9.904;2023-03-23T11:34:31;3.47;;;1.40;;
16254;SDS011;8235;52.198;9.904;2023-03-23T11:37:00;4.17;;;1.30;;
16254;SDS011;8235;52.198;9.904;2023-03-23T11:39:30;5.00;;;1.40;;
16254;SDS011;8235;52.198;9.904;2023-03-23T11:41:58;3.03;;;1.30;;
16254;SDS011;8235;52.198;9.904;2023-03-23T11:44:33;3.03;;;1.20;;
16254;SDS011;8235;52.198;9.904;2023-03-23T11:47:08;3.00;;;1.10;;
16254;SDS011;8235;52.198;9.904;2023-03-23T11:49:45;3.83;;;1.40;;
16254;SDS011;8235;52.198;9.904;2023-03-23T11:52:20;4.47;;;1.70;;
16254;SDS011;8235;52.198;9.904;2023-03-23T11:54:54;5.47;;;1.70;;
16254;SDS011;8235;52.198;9.904;2023-03-23T11:57:29;8.40;;;2.50;;
16254;SDS011;8235;52.198;9.904;2023-03-23T11:59:57;5.20;;;1.90;;
16254;SDS011;8235;52.198;9.904;2023-03-23T12:02:35;2.70;;;1.27;;
16254;SDS011;8235;52.198;9.904;2023-03-23T12:08:12;5.30;;;1.53;;
16254;SDS011;8235;52.198;9.904;2023-03-23T12:10:51;4.80;;;1.80;;
16254;SDS011;8235;52.198;9.904;2023-03-23T12:13:27;3.87;;;1.70;;
16254;SDS011;8235;52.198;9.904;2023-03-23T12:16:07;2.90;;;1.30;;
16254;SDS011;8235;52.198;9.904;2023-03-23T12:18:44;4.70;;;1.47;;
16254;SDS011;8235;52.198;9.904;2023-03-23T12:21:18;4.93;;;1.57;;
16254;SDS011;8235;52.198;9.904;2023-03-23T12:23:51;7.20;;;2.03;;
16254;SDS011;8235;52.198;9.904;2023-03-23T12:26:31;3.10;;;1.50;;
16254;SDS011;8235;52.198;9.904;2023-03-23T12:29:13;5.03;;;1.50;;
16254;SDS011;8235;52.198;9.904;2023-03-23T12:31:56;2.63;;;1.50;;
16254;SDS011;8235;52.198;9.904;2023-03-23T12:34:36;3.27;;;1.40;;
16254;SDS011;8235;52.198;9.904;2023-03-23T12:37:11;2.20;;;1.50;;
16254;SDS011;8235;52.198;9.904;2023-03-23T12:43:01;7.80;;;1.83;;
16254;SDS011;8235;52.198;9.904;2023-03-23T12:45:45;1.93;;;0.60;;
16254;SDS011;8235;52.198;9.904;2023-03-23T12:48:31;2.37;;;0.50;;
16254;SDS011;8235;52.198;9.904;2023-03-23T12:51:07;2.50;;;0.50;;
16254;SDS011;8235;52.198;9.904;2023-03-23T12:53:43;1.33;;;0.67;;
16254;SDS011;8235;52.198;9.904;2023-03-23T12:56:17;0.80;;;0.70;;
16254;SDS011;8235;52.198;9.904;2023-03-23T12:58:48;1.80;;;0.70;;
16254;SDS011;8235;52.198;9.904;2023-03-23T13:01:18;0.90;;;0.70;;
16254;SDS011;8235;52.198;9.904;2023-03-23T13:03:50;1.00;;;0.90;;
16254;SDS011;8235;52.198;9.904;2023-03-23T13:06:21;1.53;;;0.90;;
16254;SDS011;8235;52.198;9.904;2023-03-23T13:08:55;1.63;;;0.73;;
16254;SDS011;8235;52.198;9.904;2023-03-23T13:11:25;1.83;;;0.70;;
16254;SDS011;8235;52.198;9.904;2023-03-23T13:13:59;2.07;;;0.70;;
16254;SDS011;8235;52.198;9.904;2023-03-23T13:16:35;0.97;;;0.50;;
16254;SDS011;8235;52.198;9.904;2023-03-23T13:19:11;1.07;;;0.60;;
16254;SDS011;8235;52.198;9.904;2023-03-23T13:21:44;2.87;;;0.60;;
16254;SDS011;8235;52.198;9.904;2023-03-23T13:24:17;1.67;;;0.77;;
16254;SDS011;8235;52.198;9.904;2023-03-23T13:26:48;1.17;;;0.30;;
16254;SDS011;8235;52.198;9.904;2023-03-23T13:29:17;1.53;;;0.50;;
16254;SDS011;8235;52.198;9.904;2023-03-23T13:31:45;0.60;;;0.30;;
16254;SDS011;8235;52.198;9.904;2023-03-23T13:34:17;1.03;;;0.40;;
16254;SDS011;8235;52.198;9.904;2023-03-23T13:36:52;1.97;;;0.50;;
16254;SDS011;8235;52.198;9.904;2023-03-23T13:39:21;1.80;;;0.73;;
16254;SDS011;8235;52.198;9.904;2023-03-23T13:41:59;2.93;;;0.53;;
16254;SDS011;8235;52.198;9.904;2023-03-23T13:44:38;1.90;;;0.40;;
16254;SDS011;8235;52.198;9.904;2023-03-23T13:47:15;2.07;;;0.60;;
16254;SDS011;8235;52.198;9.904;2023-03-23T13:49:49;1.03;;;0.43;;
16254;SDS011;8235;52.198;9.904;2023-03-23T13:52:22;2.13;;;1.13;;
16254;SDS011;8235;52.198;9.904;2023-03-23T13:54:50;2.47;;;1.10;;
16254;SDS011;8235;52.198;9.904;2023-03-23T13:57:33;1.53;;;0.73;;
16254;SDS011;8235;52.198;9.904;2023-03-23T14:03:03;0.73;;;0.50;;
16254;SDS011;8235;52.198;9.904;2023-03-23T14:05:38;0.40;;;0.40;;
16254;SDS011;8235;52.198;9.904;2023-03-23T14:08:11;1.10;;;0.50;;
16254;SDS011;8235;52.198;9.904;2023-03-23T14:10:40;1.53;;;0.57;;
16254;SDS011;8235;52.198;9.904;2023-03-23T14:13:13;0.67;;;0.40;;
16254;SDS011;8235;52.198;9.904;2023-03-23T14:15:43;0.90;;;0.60;;
16254;SDS011;8235;52.198;9.904;2023-03-23T14:18:14;0.93;;;0.50;;
16254;SDS011;8235;52.198;9.904;2023-03-23T14:20:45;0.70;;;0.50;;
16254;SDS011;8235;52.198;9.904;2023-03-23T14:23:14;1.80;;;0.70;;
16254;SDS011;8235;52.198;9.904;2023-03-23T14:25:42;2.07;;;0.53;;
16254;SDS011;8235;52.198;9.904;2023-03-23T14:28:16;1.83;;;0.83;;
16254;SDS011;8235;52.198;9.904;2023-03-23T14:30:43;1.87;;;0.90;;
16254;SDS011;8235;52.198;9.904;2023-03-23T14:33:10;1.10;;;0.40;;
16254;SDS011;8235;52.198;9.904;2023-03-23T14:35:40;1.73;;;0.60;;
16254;SDS011;8235;52.198;9.904;2023-03-23T14:38:11;2.20;;;1.27;;
16254;SDS011;8235;52.198;9.904;2023-03-23T14:40:43;3.57;;;1.00;;
16254;SDS011;8235;52.198;9.904;2023-03-23T14:43:10;1.93;;;0.90;;
16254;SDS011;8235;52.198;9.904;2023-03-23T14:45:40;2.20;;;1.07;;
16254;SDS011;8235;52.198;9.904;2023-03-23T14:48:07;1.20;;;0.80;;
16254;SDS011;8235;52.198;9.904;2023-03-23T14:50:39;2.40;;;1.00;;
16254;SDS011;8235;52.198;9.904;2023-03-23T14:53:18;1.87;;;1.00;;
16254;SDS011;8235;52.198;9.904;2023-03-23T14:55:47;2.93;;;1.40;;
16254;SDS011;8235;52.198;9.904;2023-03-23T14:58:16;2.20;;;1.20;;
16254;SDS011;8235;52.198;9.904;2023-03-23T15:00:45;1.80;;;1.20;;
16254;SDS011;8235;52.198;9.904;2023-03-23T15:03:14;2.23;;;1.27;;
16254;SDS011;8235;52.198;9.904;2023-03-23T15:05:44;1.90;;;1.00;;
16254;SDS011;8235;52.198;9.904;2023-03-23T15:08:15;1.83;;;1.20;;
16254;SDS011;8235;52.198;9.904;2023-03-23T15:10:53;2.63;;;1.47;;
16254;SDS011;8235;52.198;9.904;2023-03-23T15:13:21;2.63;;;1.90;;
16254;SDS011;8235;52.198;9.904;2023-03-23T15:15:48;2.60;;;1.30;;
16254;SDS011;8235;52.198;9.904;2023-03-23T15:18:21;1.63;;;1.20;;
16254;SDS011;8235;52.198;9.904;2023-03-23T15:20:55;3.97;;;2.70;;
16254;SDS011;8235;52.198;9.904;2023-03-23T15:23:25;3.33;;;1.70;;
16254;SDS011;8235;52.198;9.904;2023-03-23T15:25:54;5.00;;;1.93;;
16254;SDS011;8235;52.198;9.904;2023-03-23T15:28:22;1.77;;;1.20;;